sensor_id;sensor_type;location;lat;lon;timestamp;pressure;altitude;pressure_sealevel;temperature;humidity
10978;BME280;5542;48.272;10.794;2023-04-28T00:01:35;95664.81;;;9.38;72.16
10978;BME280;5542;48.272;10.794;2023-04-28T00:04:02;95662.41;;;9.37;72.43
10978;BME280;5542;48.272;10.794;2023-04-28T00:06:28;95666.94;;;9.30;72.69
10978;BME280;5542;48.272;10.794;2023-04-28T00:08:57;95663.31;;;9.31;72.85
10978;BME280;5542;48.272;10.794;2023-04-28T00:11:23;95659.72;;;9.25;73.04
10978;BME280;5542;48.272;10.794;2023-04-28T00:13:50;95665.44;;;9.22;73.10
10978;BME280;5542;48.272;10.794;2023-04-28T00:16:17;95663.38;;;9.24;73.07
10978;BME280;5542;48.272;10.794;2023-04-28T00:18:43;95662.59;;;9.23;72.76
10978;BME280;5542;48.272;10.794;2023-04-28T00:21:10;95656.53;;;9.23;73.04
10978;BME280;5542;48.272;10.794;2023-04-28T00:23:36;95658.72;;;9.26;72.71
10978;BME280;5542;48.272;10.794;2023-04-28T00:26:04;95663.88;;;9.33;72.77
10978;BME280;5542;48.272;10.794;2023-04-28T00:28:31;95655.78;;;9.34;72.72
10978;BME280;5542;48.272;10.794;2023-04-28T00:30:57;95646.53;;;9.32;72.96
10978;BME280;5542;48.272;10.794;2023-04-28T00:33:24;95641.97;;;9.27;73.34
10978;BME280;5542;48.272;10.794;2023-04-28T00:35:57;95646.75;;;9.30;73.20
10978;BME280;5542;48.272;10.794;2023-04-28T00:38:24;95644.94;;;9.31;73.22
10978;BME280;5542;48.272;10.794;2023-04-28T00:40:51;95643.31;;;9.30;73.19
10978;BME280;5542;48.272;10.794;2023-04-28T00:43:19;95639.34;;;9.27;73.04
10978;BME280;5542;48.272;10.794;2023-04-28T00:45:45;95632.56;;;9.19;73.66
10978;BME280;5542;48.272;10.794;2023-04-28T00:48:12;95637.66;;;9.14;74.08
10978;BME280;5542;48.272;10.794;2023-04-28T00:50:39;95627.97;;;9.15;74.41
10978;BME280;5542;48.272;10.794;2023-04-28T00:53:06;95625.56;;;9.13;74.18
10978;BME280;5542;48.272;10.794;2023-04-28T00:55:34;95623.19;;;9.12;74.25
10978;BME280;5542;48.272;10.794;2023-04-28T00:58:01;95619.53;;;9.13;74.26
10978;BME280;5542;48.272;10.794;2023-04-28T01:00:29;95617.03;;;9.18;74.16
10978;BME280;5542;48.272;10.794;2023-04-28T01:02:56;95600.28;;;9.19;74.10
10978;BME280;5542;48.272;10.794;2023-04-28T01:05:24;95606.13;;;9.21;73.89
10978;BME280;5542;48.272;10.794;2023-04-28T01:07:50;95603.25;;;9.22;73.88
10978;BME280;5542;48.272;10.794;2023-04-28T01:10:17;95594.34;;;9.23;73.86
10978;BME280;5542;48.272;10.794;2023-04-28T01:12:44;95593.56;;;9.23;74.11
10978;BME280;5542;48.272;10.794;2023-04-28T01:15:15;95594.00;;;9.20;74.25
10978;BME280;5542;48.272;10.794;2023-04-28T01:17:44;95587.16;;;9.19;74.09
10978;BME280;5542;48.272;10.794;2023-04-28T01:20:11;95584.28;;;9.20;74.16
10978;BME280;5542;48.272;10.794;2023-04-28T01:22:37;95588.75;;;9.20;74.10
10978;BME280;5542;48.272;10.794;2023-04-28T01:25:06;95586.91;;;9.20;74.00
10978;BME280;5542;48.272;10.794;2023-04-28T01:27:33;95583.06;;;9.23;74.08
10978;BME280;5542;48.272;10.794;2023-04-28T01:29:59;95587.50;;;9.22;74.04
10978;BME280;5542;48.272;10.794;2023-04-28T01:32:26;95593.31;;;9.24;74.04
10978;BME280;5542;48.272;10.794;2023-04-28T01:34:52;95591.88;;;9.29;74.52
10978;BME280;5542;48.272;10.794;2023-04-28T01:37:19;95594.91;;;9.26;74.73
10978;BME280;5542;48.272;10.794;2023-04-28T01:39:45;95595.81;;;9.19;75.23
10978;BME280;5542;48.272;10.794;2023-04-28T01:42:13;95588.25;;;9.11;75.71
10978;BME280;5542;48.272;10.794;2023-04-28T01:44:40;95592.13;;;9.09;76.11
10978;BME280;5542;48.272;10.794;2023-04-28T01:47:06;95592.69;;;9.11;75.93
10978;BME280;5542;48.272;10.794;2023-04-28T01:49:33;95593.28;;;9.13;76.10
10978;BME280;5542;48.272;10.794;2023-04-28T01:52:00;95591.59;;;9.18;75.91
10978;BME280;5542;48.272;10.794;2023-04-28T01:54:26;95590.81;;;9.18;76.03
10978;BME280;5542;48.272;10.794;2023-04-28T01:56:53;95591.25;;;9.15;76.59
10978;BME280;5542;48.272;10.794;2023-04-28T01:59:21;95588.84;;;9.13;76.72
10978;BME280;5542;48.272;10.794;2023-04-28T02:01:48;95596.72;;;9.13;76.83
10978;BME280;5542;48.272;10.794;2023-04-28T02:04:20;95590.88;;;9.11;77.08
10978;BME280;5542;48.272;10.794;2023-04-28T02:06:46;95576.75;;;9.12;77.19
10978;BME280;5542;48.272;10.794;2023-04-28T02:09:13;95569.31;;;9.09;77.66
10978;BME280;5542;48.272;10.794;2023-04-28T02:11:40;95558.47;;;9.06;78.25
10978;BME280;5542;48.272;10.794;2023-04-28T02:14:06;95557.09;;;9.03;78.74
10978;BME280;5542;48.272;10.794;2023-04-28T02:16:34;95558.69;;;9.04;78.80
10978;BME280;5542;48.272;10.794;2023-04-28T02:19:01;95566.94;;;9.19;78.54
10978;BME280;5542;48.272;10.794;2023-04-28T02:21:27;95569.41;;;9.03;79.38
10978;BME280;5542;48.272;10.794;2023-04-28T02:23:54;95576.91;;;8.99;79.85
10978;BME280;5542;48.272;10.794;2023-04-28T02:26:20;95571.25;;;9.02;79.56
10978;BME280;5542;48.272;10.794;2023-04-28T02:28:48;95566.69;;;9.09;78.84
10978;BME280;5542;48.272;10.794;2023-04-28T02:31:15;95567.25;;;9.11;78.58
10978;BME280;5542;48.272;10.794;2023-04-28T02:33:43;95562.97;;;9.17;78.53
10978;BME280;5542;48.272;10.794;2023-04-28T02:36:09;95565.13;;;9.20;78.92
10978;BME280;5542;48.272;10.794;2023-04-28T02:38:36;95567.75;;;9.20;79.33
10978;BME280;5542;48.272;10.794;2023-04-28T02:41:04;95571.16;;;9.20;79.66
10978;BME280;5542;48.272;10.794;2023-04-28T02:43:31;95555.22;;;9.22;79.61
10978;BME280;5542;48.272;10.794;2023-04-28T02:45:58;95555.22;;;9.22;79.83
10978;BME280;5542;48.272;10.794;2023-04-28T02:48:25;95551.69;;;9.16;80.47
10978;BME280;5542;48.272;10.794;2023-04-28T02:50:53;95548.91;;;9.11;80.87
10978;BME280;5542;48.272;10.794;2023-04-28T02:53:21;95550.16;;;9.09;80.94
10978;BME280;5542;48.272;10.794;2023-04-28T02:55:47;95542.84;;;9.11;80.81
10978;BME280;5542;48.272;10.794;2023-04-28T02:58:14;95541.84;;;9.12;80.61
10978;BME280;5542;48.272;10.794;2023-04-28T03:00:42;95536.94;;;9.15;80.40
10978;BME280;5542;48.272;10.794;2023-04-28T03:03:10;95535.47;;;9.19;79.84
10978;BME280;5542;48.272;10.794;2023-04-28T03:05:36;95539.25;;;9.23;79.61
10978;BME280;5542;48.272;10.794;2023-04-28T03:08:05;95540.63;;;9.26;79.36
10978;BME280;5542;48.272;10.794;2023-04-28T03:10:31;95540.16;;;9.29;78.92
10978;BME280;5542;48.272;10.794;2023-04-28T03:12:58;95549.50;;;9.25;79.14
10978;BME280;5542;48.272;10.794;2023-04-28T03:15:25;95549.19;;;9.21;79.93
10978;BME280;5542;48.272;10.794;2023-04-28T03:17:51;95555.44;;;9.20;80.31
10978;BME280;5542;48.272;10.794;2023-04-28T03:20:18;95557.59;;;9.12;82.79
10978;BME280;5542;48.272;10.794;2023-04-28T03:22:45;95560.34;;;9.17;83.43
10978;BME280;5542;48.272;10.794;2023-04-28T03:25:12;95570.41;;;9.02;84.18
10978;BME280;5542;48.272;10.794;2023-04-28T03:27:39;95578.81;;;8.92;85.01
10978;BME280;5542;48.272;10.794;2023-04-28T03:30:06;95570.75;;;8.75;86.08
10978;BME280;5542;48.272;10.794;2023-04-28T03:32:34;95561.06;;;8.76;86.54
10978;BME280;5542;48.272;10.794;2023-04-28T03:35:01;95562.66;;;8.77;86.63
10978;BME280;5542;48.272;10.794;2023-04-28T03:37:27;95553.44;;;8.74;87.03
10978;BME280;5542;48.272;10.794;2023-04-28T03:39:54;95541.69;;;8.77;87.08
10978;BME280;5542;48.272;10.794;2023-04-28T03:42:22;95534.19;;;8.80;87.09
10978;BME280;5542;48.272;10.794;2023-04-28T03:44:48;95527.13;;;8.81;87.08
10978;BME280;5542;48.272;10.794;2023-04-28T03:47:15;95528.81;;;8.75;87.55
10978;BME280;5542;48.272;10.794;2023-04-28T03:49:41;95530.13;;;8.66;88.36
10978;BME280;5542;48.272;10.794;2023-04-28T03:52:10;95534.13;;;8.68;88.11
10978;BME280;5542;48.272;10.794;2023-04-28T03:54:36;95537.84;;;8.61;88.46
10978;BME280;5542;48.272;10.794;2023-04-28T03:57:03;95534.56;;;8.65;88.55
10978;BME280;5542;48.272;10.794;2023-04-28T03:59:31;95535.50;;;8.71;88.34
10978;BME280;5542;48.272;10.794;2023-04-28T04:01:58;95538.84;;;8.78;88.11
10978;BME280;5542;48.272;10.794;2023-04-28T04:04:24;95543.66;;;8.81;87.95
10978;BME280;5542;48.272;10.794;2023-04-28T04:06:51;95536.38;;;8.83;87.73
10978;BME280;5542;48.272;10.794;2023-04-28T04:09:18;95537.50;;;8.87;87.41
10978;BME280;5542;48.272;10.794;2023-04-28T04:11:44;95532.19;;;8.94;87.02
10978;BME280;5542;48.272;10.794;2023-04-28T04:14:11;95534.16;;;8.98;86.15
10978;BME280;5542;48.272;10.794;2023-04-28T04:16:39;95540.56;;;9.03;85.65
10978;BME280;5542;48.272;10.794;2023-04-28T04:19:05;95542.28;;;9.09;85.11
10978;BME280;5542;48.272;10.794;2023-04-28T04:21:32;95533.63;;;9.08;85.29
10978;BME280;5542;48.272;10.794;2023-04-28T04:23:58;95534.78;;;9.12;85.43
10978;BME280;5542;48.272;10.794;2023-04-28T04:26:25;95542.53;;;9.07;85.93
10978;BME280;5542;48.272;10.794;2023-04-28T04:28:52;95540.69;;;9.08;86.43
10978;BME280;5542;48.272;10.794;2023-04-28T04:31:18;95546.50;;;9.10;86.56
10978;BME280;5542;48.272;10.794;2023-04-28T04:33:48;95545.94;;;9.08;86.84
10978;BME280;5542;48.272;10.794;2023-04-28T04:36:14;95544.91;;;9.09;87.12
10978;BME280;5542;48.272;10.794;2023-04-28T04:38:41;95544.13;;;9.08;87.28
10978;BME280;5542;48.272;10.794;2023-04-28T04:41:07;95538.28;;;9.06;87.44
10978;BME280;5542;48.272;10.794;2023-04-28T04:43:34;95542.28;;;9.09;87.54
10978;BME280;5542;48.272;10.794;2023-04-28T04:46:00;95542.53;;;9.07;87.70
10978;BME280;5542;48.272;10.794;2023-04-28T04:48:28;95546.94;;;9.07;87.83
10978;BME280;5542;48.272;10.794;2023-04-28T04:50:56;95542.94;;;9.04;88.13
10978;BME280;5542;48.272;10.794;2023-04-28T04:53:23;95535.66;;;9.06;88.16
10978;BME280;5542;48.272;10.794;2023-04-28T04:55:49;95533.81;;;9.07;88.31
10978;BME280;5542;48.272;10.794;2023-04-28T04:58:16;95544.69;;;9.10;88.13
10978;BME280;5542;48.272;10.794;2023-04-28T05:00:42;95550.28;;;9.14;87.88
10978;BME280;5542;48.272;10.794;2023-04-28T05:03:09;95560.91;;;9.19;88.01
10978;BME280;5542;48.272;10.794;2023-04-28T05:05:36;95572.13;;;9.26;87.71
10978;BME280;5542;48.272;10.794;2023-04-28T05:08:04;95568.13;;;9.23;88.25
10978;BME280;5542;48.272;10.794;2023-04-28T05:10:30;95563.66;;;9.24;89.03
10978;BME280;5542;48.272;10.794;2023-04-28T05:12:57;95565.94;;;9.20;89.50
10978;BME280;5542;48.272;10.794;2023-04-28T05:15:23;95561.28;;;9.22;89.47
10978;BME280;5542;48.272;10.794;2023-04-28T05:17:50;95558.41;;;9.24;90.06
10978;BME280;5542;48.272;10.794;2023-04-28T05:20:17;95558.66;;;9.22;90.72
10978;BME280;5542;48.272;10.794;2023-04-28T05:22:43;95564.56;;;9.18;91.09
10978;BME280;5542;48.272;10.794;2023-04-28T05:25:11;95554.50;;;9.15;91.78
10978;BME280;5542;48.272;10.794;2023-04-28T05:27:38;95554.72;;;9.13;92.37
10978;BME280;5542;48.272;10.794;2023-04-28T05:30:07;95548.69;;;9.13;92.80
10978;BME280;5542;48.272;10.794;2023-04-28T05:32:35;95549.50;;;9.13;93.36
10978;BME280;5542;48.272;10.794;2023-04-28T05:35:02;95549.06;;;9.16;93.53
10978;BME280;5542;48.272;10.794;2023-04-28T05:37:28;95544.25;;;9.25;93.45
10978;BME280;5542;48.272;10.794;2023-04-28T05:39:57;95539.00;;;9.25;93.64
10978;BME280;5542;48.272;10.794;2023-04-28T05:42:25;95549.63;;;9.18;93.95
10978;BME280;5542;48.272;10.794;2023-04-28T05:44:51;95536.13;;;9.15;94.31
10978;BME280;5542;48.272;10.794;2023-04-28T05:47:18;95528.38;;;9.20;94.44
10978;BME280;5542;48.272;10.794;2023-04-28T05:49:45;95534.22;;;9.22;94.58
10978;BME280;5542;48.272;10.794;2023-04-28T05:52:11;95520.66;;;9.25;94.52
10978;BME280;5542;48.272;10.794;2023-04-28T05:54:38;95519.97;;;9.30;94.45
10978;BME280;5542;48.272;10.794;2023-04-28T05:57:04;95519.09;;;9.36;94.26
10978;BME280;5542;48.272;10.794;2023-04-28T05:59:32;95526.28;;;9.40;94.46
10978;BME280;5542;48.272;10.794;2023-04-28T06:01:59;95522.63;;;9.41;94.80
10978;BME280;5542;48.272;10.794;2023-04-28T06:04:25;95518.53;;;9.45;94.74
10978;BME280;5542;48.272;10.794;2023-04-28T06:06:52;95528.50;;;9.55;94.45
10978;BME280;5542;48.272;10.794;2023-04-28T06:09:19;95530.88;;;9.57;94.57
10978;BME280;5542;48.272;10.794;2023-04-28T06:11:45;95526.34;;;9.64;94.48
10978;BME280;5542;48.272;10.794;2023-04-28T06:14:12;95514.44;;;9.73;94.18
10978;BME280;5542;48.272;10.794;2023-04-28T06:16:40;95516.63;;;9.76;93.95
10978;BME280;5542;48.272;10.794;2023-04-28T06:19:06;95514.91;;;9.82;94.44
10978;BME280;5542;48.272;10.794;2023-04-28T06:21:33;95518.13;;;9.84;94.40
10978;BME280;5542;48.272;10.794;2023-04-28T06:24:00;95513.06;;;9.82;94.56
10978;BME280;5542;48.272;10.794;2023-04-28T06:26:26;95507.94;;;9.87;94.91
10978;BME280;5542;48.272;10.794;2023-04-28T06:28:53;95504.88;;;9.90;95.26
10978;BME280;5542;48.272;10.794;2023-04-28T06:31:20;95504.75;;;9.97;95.14
10978;BME280;5542;48.272;10.794;2023-04-28T06:33:47;95500.72;;;10.06;95.01
10978;BME280;5542;48.272;10.794;2023-04-28T06:36:14;95497.41;;;10.11;95.10
10978;BME280;5542;48.272;10.794;2023-04-28T06:38:42;95495.94;;;10.15;95.39
10978;BME280;5542;48.272;10.794;2023-04-28T06:41:08;95487.00;;;10.16;95.93
10978;BME280;5542;48.272;10.794;2023-04-28T06:43:38;95491.81;;;10.19;96.09
10978;BME280;5542;48.272;10.794;2023-04-28T06:46:05;95486.56;;;10.19;96.68
10978;BME280;5542;48.272;10.794;2023-04-28T06:48:31;95481.75;;;10.16;96.74
10978;BME280;5542;48.272;10.794;2023-04-28T06:50:59;95488.88;;;10.04;96.85
10978;BME280;5542;48.272;10.794;2023-04-28T06:53:26;95494.78;;;10.11;97.15
10978;BME280;5542;48.272;10.794;2023-04-28T06:55:52;95489.19;;;10.19;96.42
10978;BME280;5542;48.272;10.794;2023-04-28T06:58:19;95498.91;;;10.18;96.84
10978;BME280;5542;48.272;10.794;2023-04-28T07:00:46;95500.41;;;10.26;97.11
10978;BME280;5542;48.272;10.794;2023-04-28T07:03:12;95503.94;;;10.32;97.08
10978;BME280;5542;48.272;10.794;2023-04-28T07:05:39;95512.72;;;10.37;96.97
10978;BME280;5542;48.272;10.794;2023-04-28T07:08:07;95516.03;;;10.44;96.91
10978;BME280;5542;48.272;10.794;2023-04-28T07:10:33;95520.03;;;10.47;96.90
10978;BME280;5542;48.272;10.794;2023-04-28T07:13:00;95519.22;;;10.46;97.46
10978;BME280;5542;48.272;10.794;2023-04-28T07:15:27;95516.84;;;10.45;98.08
10978;BME280;5542;48.272;10.794;2023-04-28T07:17:54;95513.63;;;10.43;98.90
10978;BME280;5542;48.272;10.794;2023-04-28T07:20:20;95503.13;;;10.43;99.32
10978;BME280;5542;48.272;10.794;2023-04-28T07:22:47;95503.34;;;10.41;100.00
10978;BME280;5542;48.272;10.794;2023-04-28T07:25:15;95503.00;;;10.49;100.00
10978;BME280;5542;48.272;10.794;2023-04-28T07:27:41;95498.63;;;10.55;99.94
10978;BME280;5542;48.272;10.794;2023-04-28T07:30:08;95491.53;;;10.56;100.00
10978;BME280;5542;48.272;10.794;2023-04-28T07:32:35;95488.06;;;10.67;100.00
10978;BME280;5542;48.272;10.794;2023-04-28T07:35:05;95490.00;;;10.71;100.00
10978;BME280;5542;48.272;10.794;2023-04-28T07:37:32;95487.47;;;10.76;100.00
10978;BME280;5542;48.272;10.794;2023-04-28T07:39:58;95486.38;;;10.89;99.77
10978;BME280;5542;48.272;10.794;2023-04-28T07:42:26;95490.59;;;10.90;98.73
10978;BME280;5542;48.272;10.794;2023-04-28T07:44:53;95481.06;;;11.01;98.24
10978;BME280;5542;48.272;10.794;2023-04-28T07:47:22;95484.03;;;11.05;97.40
10978;BME280;5542;48.272;10.794;2023-04-28T07:49:48;95477.31;;;10.97;97.96
10978;BME280;5542;48.272;10.794;2023-04-28T07:52:15;95476.38;;;11.03;97.99
10978;BME280;5542;48.272;10.794;2023-04-28T07:54:41;95467.75;;;11.08;96.92
10978;BME280;5542;48.272;10.794;2023-04-28T07:57:08;95464.56;;;11.06;97.62
10978;BME280;5542;48.272;10.794;2023-04-28T07:59:36;95461.47;;;11.09;97.73
10978;BME280;5542;48.272;10.794;2023-04-28T08:02:03;95463.31;;;11.08;97.32
10978;BME280;5542;48.272;10.794;2023-04-28T08:04:30;95465.34;;;11.06;97.71
10978;BME280;5542;48.272;10.794;2023-04-28T08:06:58;95461.63;;;11.19;97.43
10978;BME280;5542;48.272;10.794;2023-04-28T08:09:25;95459.25;;;11.17;97.52
10978;BME280;5542;48.272;10.794;2023-04-28T08:11:52;95467.38;;;11.16;97.38
10978;BME280;5542;48.272;10.794;2023-04-28T08:14:19;95463.47;;;11.18;97.81
10978;BME280;5542;48.272;10.794;2023-04-28T08:16:47;95456.78;;;11.27;97.03
10978;BME280;5542;48.272;10.794;2023-04-28T08:19:14;95454.53;;;11.36;96.89
10978;BME280;5542;48.272;10.794;2023-04-28T08:21:40;95456.59;;;11.34;96.21
10978;BME280;5542;48.272;10.794;2023-04-28T08:24:07;95452.72;;;11.37;96.09
10978;BME280;5542;48.272;10.794;2023-04-28T08:26:35;95457.50;;;11.40;95.60
10978;BME280;5542;48.272;10.794;2023-04-28T08:29:05;95448.16;;;11.32;96.31
10978;BME280;5542;48.272;10.794;2023-04-28T08:31:31;95442.50;;;11.40;96.24
10978;BME280;5542;48.272;10.794;2023-04-28T08:33:59;95448.31;;;11.42;96.49
10978;BME280;5542;48.272;10.794;2023-04-28T08:36:26;95446.88;;;11.51;96.50
10978;BME280;5542;48.272;10.794;2023-04-28T08:38:56;95449.72;;;11.67;95.89
10978;BME280;5542;48.272;10.794;2023-04-28T08:41:24;95449.03;;;11.54;96.48
10978;BME280;5542;48.272;10.794;2023-04-28T08:43:52;95443.38;;;11.46;96.97
10978;BME280;5542;48.272;10.794;2023-04-28T08:46:20;95448.72;;;11.34;97.82
10978;BME280;5542;48.272;10.794;2023-04-28T08:48:48;95448.78;;;11.39;97.97
10978;BME280;5542;48.272;10.794;2023-04-28T08:51:25;95448.16;;;11.49;97.93
10978;BME280;5542;48.272;10.794;2023-04-28T08:53:53;95442.66;;;11.50;98.21
10978;BME280;5542;48.272;10.794;2023-04-28T08:56:23;95438.34;;;11.44;98.56
10978;BME280;5542;48.272;10.794;2023-04-28T08:58:52;95438.91;;;11.46;99.47
10978;BME280;5542;48.272;10.794;2023-04-28T09:01:20;95436.41;;;11.57;99.58
10978;BME280;5542;48.272;10.794;2023-04-28T09:03:47;95436.28;;;11.63;98.98
10978;BME280;5542;48.272;10.794;2023-04-28T09:06:14;95433.44;;;11.70;99.74
10978;BME280;5542;48.272;10.794;2023-04-28T09:08:42;95431.38;;;11.72;99.66
10978;BME280;5542;48.272;10.794;2023-04-28T09:11:09;95443.41;;;11.68;100.00
10978;BME280;5542;48.272;10.794;2023-04-28T09:13:38;95435.44;;;11.63;100.00
10978;BME280;5542;48.272;10.794;2023-04-28T09:16:06;95431.41;;;11.55;100.00
10978;BME280;5542;48.272;10.794;2023-04-28T09:18:32;95433.09;;;11.44;100.00
10978;BME280;5542;48.272;10.794;2023-04-28T09:21:04;95433.63;;;11.46;100.00
10978;BME280;5542;48.272;10.794;2023-04-28T09:23:31;95439.53;;;11.53;100.00
10978;BME280;5542;48.272;10.794;2023-04-28T09:26:02;95434.09;;;11.60;100.00
10978;BME280;5542;48.272;10.794;2023-04-28T09:28:29;95436.66;;;11.55;100.00
10978;BME280;5542;48.272;10.794;2023-04-28T09:30:56;95435.50;;;11.68;100.00
10978;BME280;5542;48.272;10.794;2023-04-28T09:33:22;95435.31;;;11.52;100.00
10978;BME280;5542;48.272;10.794;2023-04-28T09:35:49;95437.31;;;11.45;100.00
10978;BME280;5542;48.272;10.794;2023-04-28T09:38:18;95431.66;;;11.37;100.00
10978;BME280;5542;48.272;10.794;2023-04-28T09:40:52;95427.31;;;11.47;100.00
10978;BME280;5542;48.272;10.794;2023-04-28T09:43:25;95427.81;;;11.44;100.00
10978;BME280;5542;48.272;10.794;2023-04-28T09:45:52;95423.28;;;11.40;100.00
10978;BME280;5542;48.272;10.794;2023-04-28T09:48:27;95425.34;;;11.54;100.00
10978;BME280;5542;48.272;10.794;2023-04-28T09:50:54;95420.47;;;11.46;100.00
10978;BME280;5542;48.272;10.794;2023-04-28T09:53:22;95431.00;;;11.46;100.00
10978;BME280;5542;48.272;10.794;2023-04-28T09:55:49;95431.31;;;11.50;100.00
10978;BME280;5542;48.272;10.794;2023-04-28T09:58:18;95435.22;;;11.47;100.00
10978;BME280;5542;48.272;10.794;2023-04-28T10:00:51;95433.63;;;11.46;100.00
10978;BME280;5542;48.272;10.794;2023-04-28T10:03:20;95430.28;;;11.34;100.00
10978;BME280;5542;48.272;10.794;2023-04-28T10:05:48;95434.13;;;11.26;100.00
10978;BME280;5542;48.272;10.794;2023-04-28T10:08:15;95428.75;;;11.38;100.00
10978;BME280;5542;48.272;10.794;2023-04-28T10:10:43;95431.41;;;11.38;100.00
10978;BME280;5542;48.272;10.794;2023-04-28T10:13:10;95433.47;;;11.53;100.00
10978;BME280;5542;48.272;10.794;2023-04-28T10:15:38;95439.69;;;11.64;100.00
10978;BME280;5542;48.272;10.794;2023-04-28T10:18:07;95430.44;;;11.61;100.00
10978;BME280;5542;48.272;10.794;2023-04-28T10:20:34;95436.81;;;11.65;100.00
10978;BME280;5542;48.272;10.794;2023-04-28T10:23:20;95432.19;;;11.56;100.00
10978;BME280;5542;48.272;10.794;2023-04-28T10:25:54;95428.03;;;11.60;100.00
10978;BME280;5542;48.272;10.794;2023-04-28T10:28:22;95433.78;;;11.57;100.00
10978;BME280;5542;48.272;10.794;2023-04-28T10:31:08;95424.50;;;11.71;100.00
10978;BME280;5542;48.272;10.794;2023-04-28T10:33:37;95419.81;;;11.73;100.00
10978;BME280;5542;48.272;10.794;2023-04-28T10:36:05;95420.53;;;11.68;100.00
10978;BME280;5542;48.272;10.794;2023-04-28T10:38:31;95425.53;;;11.87;100.00
10978;BME280;5542;48.272;10.794;2023-04-28T10:41:01;95426.56;;;11.86;100.00
10978;BME280;5542;48.272;10.794;2023-04-28T10:43:33;95437.16;;;12.08;100.00
10978;BME280;5542;48.272;10.794;2023-04-28T10:46:04;95429.97;;;12.03;100.00
10978;BME280;5542;48.272;10.794;2023-04-28T10:49:05;95425.31;;;11.88;100.00
10978;BME280;5542;48.272;10.794;2023-04-28T10:51:33;95432.03;;;12.01;100.00
10978;BME280;5542;48.272;10.794;2023-04-28T10:54:13;95441.63;;;12.07;100.00
10978;BME280;5542;48.272;10.794;2023-04-28T10:57:16;95439.72;;;12.02;100.00
10978;BME280;5542;48.272;10.794;2023-04-28T10:59:50;95431.88;;;12.08;100.00
10978;BME280;5542;48.272;10.794;2023-04-28T11:02:49;95435.38;;;12.13;100.00
10978;BME280;5542;48.272;10.794;2023-04-28T11:05:20;95430.91;;;12.14;100.00
10978;BME280;5542;48.272;10.794;2023-04-28T11:11:23;95423.13;;;12.24;100.00
10978;BME280;5542;48.272;10.794;2023-04-28T11:13:52;95428.03;;;12.37;100.00
10978;BME280;5542;48.272;10.794;2023-04-28T11:16:21;95423.38;;;12.44;100.00
10978;BME280;5542;48.272;10.794;2023-04-28T11:18:50;95430.38;;;12.61;100.00
10978;BME280;5542;48.272;10.794;2023-04-28T11:21:19;95429.38;;;12.67;100.00
10978;BME280;5542;48.272;10.794;2023-04-28T11:23:46;95430.19;;;12.94;100.00
10978;BME280;5542;48.272;10.794;2023-04-28T11:26:14;95423.69;;;13.02;100.00
10978;BME280;5542;48.272;10.794;2023-04-28T11:28:47;95433.28;;;13.13;100.00
10978;BME280;5542;48.272;10.794;2023-04-28T11:31:16;95432.19;;;13.09;100.00
10978;BME280;5542;48.272;10.794;2023-04-28T11:33:46;95436.53;;;12.93;100.00
10978;BME280;5542;48.272;10.794;2023-04-28T11:36:27;95425.00;;;13.04;100.00
10978;BME280;5542;48.272;10.794;2023-04-28T11:38:54;95422.03;;;12.96;100.00
10978;BME280;5542;48.272;10.794;2023-04-28T11:41:22;95429.75;;;13.02;100.00
10978;BME280;5542;48.272;10.794;2023-04-28T11:43:49;95431.06;;;13.05;100.00
10978;BME280;5542;48.272;10.794;2023-04-28T11:46:17;95426.66;;;13.11;100.00
10978;BME280;5542;48.272;10.794;2023-04-28T11:48:44;95421.16;;;13.17;100.00
10978;BME280;5542;48.272;10.794;2023-04-28T11:51:30;95425.91;;;13.47;100.00
10978;BME280;5542;48.272;10.794;2023-04-28T11:53:58;95440.50;;;13.55;100.00
10978;BME280;5542;48.272;10.794;2023-04-28T11:56:28;95446.16;;;13.69;100.00
10978;BME280;5542;48.272;10.794;2023-04-28T11:59:05;95432.50;;;13.82;99.29
10978;BME280;5542;48.272;10.794;2023-04-28T12:01:44;95435.56;;;13.64;100.00
10978;BME280;5542;48.272;10.794;2023-04-28T12:04:11;95435.19;;;13.87;100.00
10978;BME280;5542;48.272;10.794;2023-04-28T12:06:40;95434.78;;;14.16;100.00
10978;BME280;5542;48.272;10.794;2023-04-28T12:09:26;95438.59;;;14.40;99.00
10978;BME280;5542;48.272;10.794;2023-04-28T12:11:54;95438.63;;;14.45;96.80
10978;BME280;5542;48.272;10.794;2023-04-28T12:14:24;95445.56;;;14.62;98.25
10978;BME280;5542;48.272;10.794;2023-04-28T12:16:54;95441.88;;;14.57;99.23
10978;BME280;5542;48.272;10.794;2023-04-28T12:19:21;95436.13;;;14.86;99.31
10978;BME280;5542;48.272;10.794;2023-04-28T12:22:03;95443.50;;;14.74;96.29
10978;BME280;5542;48.272;10.794;2023-04-28T12:24:31;95455.69;;;14.75;95.94
10978;BME280;5542;48.272;10.794;2023-04-28T12:27:13;95462.31;;;14.77;94.92
10978;BME280;5542;48.272;10.794;2023-04-28T12:29:42;95452.69;;;14.51;91.15
10978;BME280;5542;48.272;10.794;2023-04-28T12:32:11;95455.00;;;14.42;94.49
10978;BME280;5542;48.272;10.794;2023-04-28T12:34:39;95451.06;;;14.45;92.78
10978;BME280;5542;48.272;10.794;2023-04-28T12:37:07;95451.47;;;14.21;91.54
10978;BME280;5542;48.272;10.794;2023-04-28T12:39:35;95449.34;;;14.18;94.25
10978;BME280;5542;48.272;10.794;2023-04-28T12:42:02;95448.69;;;14.43;93.24
10978;BME280;5542;48.272;10.794;2023-04-28T12:44:31;95449.25;;;14.50;93.28
10978;BME280;5542;48.272;10.794;2023-04-28T12:47:01;95451.91;;;14.55;93.87
10978;BME280;5542;48.272;10.794;2023-04-28T12:49:27;95454.06;;;14.64;90.82
10978;BME280;5542;48.272;10.794;2023-04-28T12:51:54;95446.16;;;14.79;90.58
10978;BME280;5542;48.272;10.794;2023-04-28T12:54:22;95443.75;;;14.67;90.74
10978;BME280;5542;48.272;10.794;2023-04-28T12:56:49;95445.38;;;14.78;93.21
10978;BME280;5542;48.272;10.794;2023-04-28T12:59:16;95448.34;;;15.07;89.17
10978;BME280;5542;48.272;10.794;2023-04-28T13:01:42;95457.06;;;15.03;89.42
10978;BME280;5542;48.272;10.794;2023-04-28T13:04:09;95448.09;;;15.24;89.37
10978;BME280;5542;48.272;10.794;2023-04-28T13:06:37;95468.22;;;15.05;87.11
10978;BME280;5542;48.272;10.794;2023-04-28T13:09:04;95451.47;;;14.94;87.95
10978;BME280;5542;48.272;10.794;2023-04-28T13:11:32;95457.03;;;14.88;88.51